Time;durP1;ratioP1;P1;durP2;ratioP2;P2;SDS_P1;SDS_P2;PMS_P1;PMS_P2;Temp;Humidity;BMP_temperature;BMP_pressure;BME280_temperature;BME280_humidity;BME280_pressure;Samples;Min_cycle;Max_cycle;Signal;HPM_P1;HPM_P2
2023/04/25 00:01:21;;;;;;;;;;;13.00;63.10;;;;;;5052762;28;19924;-60
2023/04/25 00:03:47;;;;;;;;;;;13.00;63.00;;;;;;5052494;28;19909;-60
2023/04/25 00:06:12;;;;;;;;;;;13.00;63.10;;;;;;5052807;28;19955;-61
2023/04/25 00:08:38;;;;;;;;;;;13.00;63.10;;;;;;5052822;28;19913;-61
2023/04/25 00:11:03;;;;;;;;;;;13.00;63.10;;;;;;5069967;28;20359;-61
2023/04/25 00:13:29;;;;;;;;;;;13.10;63.10;;;;;;5053527;28;19968;-61
2023/04/25 00:15:56;;;;;;;;;;;13.20;63.00;;;;;;5052963;28;19916;-61
2023/04/25 00:18:21;;;;;;;;;;;13.10;62.90;;;;;;5052321;28;19944;-61
2023/04/25 00:20:47;;;;;;;;;;;13.10;63.00;;;;;;5052303;28;19968;-61
2023/04/25 00:23:17;;;;;;;;;;;13.00;63.00;;;;;;5069085;28;20379;-61
2023/04/25 00:25:46;;;;;;;;;;;12.90;63.10;;;;;;5066390;28;19921;-61
2023/04/25 00:28:11;;;;;;;;;;;12.80;63.20;;;;;;5053200;28;20376;-61
2023/04/25 00:30:37;;;;;;;;;;;12.80;63.10;;;;;;5052354;28;19924;-61
2023/04/25 00:33:03;;;;;;;;;;;12.80;63.20;;;;;;5050614;28;20260;-60
2023/04/25 00:35:28;;;;;;;;;;;12.80;63.20;;;;;;5052149;28;19970;-61
2023/04/25 00:37:54;;;;;;;;;;;12.80;63.20;;;;;;5052168;28;19999;-61
2023/04/25 00:40:20;;;;;;;;;;;12.70;63.40;;;;;;5054172;28;20423;-62
2023/04/25 00:42:46;;;;;;;;;;;12.70;63.40;;;;;;5062487;28;19913;-59
2023/04/25 00:45:14;;;;;;;;;;;12.70;63.20;;;;;;5052180;28;20283;-60
2023/04/25 00:47:40;;;;;;;;;;;12.70;63.40;;;;;;5051962;28;20271;-60
2023/04/25 00:50:06;;;;;;;;;;;12.70;63.40;;;;;;5065281;28;19939;-60
2023/04/25 00:52:31;;;;;;;;;;;12.70;63.20;;;;;;5071973;28;19916;-59
2023/04/25 00:54:57;;;;;;;;;;;12.70;63.30;;;;;;5071436;28;19913;-59
2023/04/25 00:57:22;;;;;;;;;;;12.70;63.30;;;;;;5070189;28;19916;-60
2023/04/25 00:59:47;;;;;;;;;;;12.70;63.40;;;;;;5061479;28;20371;-59
2023/04/25 01:02:13;;;;;;;;;;;12.70;63.20;;;;;;5062405;28;19916;-59
2023/04/25 01:04:38;;;;;;;;;;;12.70;63.30;;;;;;5051451;28;19909;-59
2023/04/25 01:07:04;;;;;;;;;;;12.70;63.30;;;;;;5051727;28;19917;-60
2023/04/25 01:09:31;;;;;;;;;;;12.70;63.40;;;;;;5062245;28;19912;-60
2023/04/25 01:11:57;;;;;;;;;;;12.70;63.50;;;;;;5070013;28;19920;-60
2023/04/25 01:14:23;;;;;;;;;;;12.70;63.40;;;;;;5054337;28;20410;-60
2023/04/25 01:16:48;;;;;;;;;;;12.70;63.40;;;;;;5051467;28;19917;-60
2023/04/25 01:19:16;;;;;;;;;;;12.70;63.40;;;;;;5051737;28;19920;-60
2023/04/25 01:21:41;;;;;;;;;;;12.70;63.30;;;;;;5051448;28;19952;-60
2023/04/25 01:24:06;;;;;;;;;;;12.60;63.40;;;;;;5067630;28;19986;-60
2023/04/25 01:26:32;;;;;;;;;;;12.60;63.50;;;;;;5071009;28;19913;-60
2023/04/25 01:28:58;;;;;;;;;;;12.60;63.60;;;;;;5071355;28;19963;-61
2023/04/25 01:31:24;;;;;;;;;;;12.60;63.60;;;;;;5070884;28;19954;-60
2023/04/25 01:33:49;;;;;;;;;;;12.60;63.70;;;;;;5071424;28;19943;-60
2023/04/25 01:36:15;;;;;;;;;;;12.50;63.60;;;;;;5055247;28;19932;-60
2023/04/25 01:38:41;;;;;;;;;;;12.50;63.60;;;;;;5066150;28;19932;-61
2023/04/25 01:41:06;;;;;;;;;;;12.50;63.70;;;;;;5053206;28;19924;-61
2023/04/25 01:43:32;;;;;;;;;;;12.50;63.90;;;;;;5071050;28;19917;-61
2023/04/25 01:45:58;;;;;;;;;;;12.50;64.00;;;;;;5060720;28;19923;-61
2023/04/25 01:48:23;;;;;;;;;;;12.50;63.90;;;;;;5051365;28;20368;-61
2023/04/25 01:50:49;;;;;;;;;;;12.50;64.00;;;;;;5052068;28;19920;-61
2023/04/25 01:53:14;;;;;;;;;;;12.50;63.80;;;;;;5050676;28;19928;-61
2023/04/25 01:55:40;;;;;;;;;;;12.50;63.90;;;;;;5049983;28;20346;-61
2023/04/25 01:58:09;;;;;;;;;;;12.50;64.00;;;;;;5050567;28;19959;-61
2023/04/25 02:00:37;;;;;;;;;;;12.50;64.00;;;;;;5050718;28;19956;-61
2023/04/25 02:03:03;;;;;;;;;;;12.50;64.10;;;;;;5051126;28;20368;-60
2023/04/25 02:05:33;;;;;;;;;;;12.50;64.10;;;;;;5055533;28;19917;-61
2023/04/25 02:07:58;;;;;;;;;;;12.50;64.20;;;;;;5051061;28;20328;-62
2023/04/25 02:10:24;;;;;;;;;;;12.50;64.10;;;;;;5050776;28;20086;-61
2023/04/25 02:12:49;;;;;;;;;;;12.50;64.10;;;;;;5058330;28;19977;-62
2023/04/25 02:15:15;;;;;;;;;;;12.50;64.20;;;;;;5067004;28;20383;-62
2023/04/25 02:17:40;;;;;;;;;;;12.50;64.20;;;;;;5056733;28;19969;-62
2023/04/25 02:20:06;;;;;;;;;;;12.60;64.20;;;;;;5062506;28;20010;-62
2023/04/25 02:22:31;;;;;;;;;;;12.60;64.20;;;;;;5050386;28;20078;-62
2023/04/25 02:24:57;;;;;;;;;;;12.60;64.20;;;;;;5050527;28;19944;-62
2023/04/25 02:27:23;;;;;;;;;;;12.60;64.20;;;;;;5050659;28;19920;-61
2023/04/25 02:29:48;;;;;;;;;;;12.60;64.10;;;;;;5050379;28;19917;-62
2023/04/25 02:32:14;;;;;;;;;;;12.70;64.20;;;;;;5051342;28;19960;-62
2023/04/25 02:34:39;;;;;;;;;;;12.60;64.10;;;;;;5061666;28;19955;-62
2023/04/25 02:37:05;;;;;;;;;;;12.70;64.10;;;;;;5050058;28;19952;-62
2023/04/25 02:39:30;;;;;;;;;;;12.70;64.00;;;;;;5050308;28;20449;-62
2023/04/25 02:41:56;;;;;;;;;;;12.70;63.80;;;;;;5050376;28;19909;-62
2023/04/25 02:44:21;;;;;;;;;;;12.70;63.80;;;;;;5049981;28;19916;-62
2023/04/25 02:46:46;;;;;;;;;;;12.70;63.80;;;;;;5050141;28;19909;-62
2023/04/25 02:49:12;;;;;;;;;;;12.70;63.70;;;;;;5050342;28;19920;-60
2023/04/25 02:51:37;;;;;;;;;;;12.70;63.70;;;;;;5050081;28;19916;-62
2023/04/25 02:54:03;;;;;;;;;;;12.70;63.80;;;;;;5054242;28;20015;-62
2023/04/25 02:56:28;;;;;;;;;;;12.80;63.70;;;;;;5065067;28;20027;-62
2023/04/25 02:58:54;;;;;;;;;;;12.70;63.50;;;;;;5050338;28;19917;-62
2023/04/25 03:01:19;;;;;;;;;;;12.70;63.60;;;;;;5049944;28;19912;-62
2023/04/25 03:03:45;;;;;;;;;;;12.70;63.60;;;;;;5050196;28;20019;-62
2023/04/25 03:06:11;;;;;;;;;;;12.60;63.60;;;;;;5052355;28;19909;-62
2023/04/25 03:08:36;;;;;;;;;;;12.60;63.70;;;;;;5054112;28;19939;-62
2023/04/25 03:11:01;;;;;;;;;;;12.60;63.70;;;;;;5053837;28;20287;-61
2023/04/25 03:13:29;;;;;;;;;;;12.60;63.90;;;;;;5053485;28;19923;-60
2023/04/25 03:15:55;;;;;;;;;;;12.60;63.80;;;;;;5052486;28;20473;-61
2023/04/25 03:18:20;;;;;;;;;;;12.60;63.80;;;;;;5069770;28;19963;-62
2023/04/25 03:20:46;;;;;;;;;;;12.60;63.80;;;;;;5073568;28;19915;-61
2023/04/25 03:23:11;;;;;;;;;;;12.60;63.70;;;;;;5073552;28;19926;-61
2023/04/25 03:25:37;;;;;;;;;;;12.50;63.60;;;;;;5073389;28;20382;-61
2023/04/25 03:28:02;;;;;;;;;;;12.50;63.50;;;;;;5071216;28;20306;-61
2023/04/25 03:30:28;;;;;;;;;;;12.50;63.50;;;;;;5057938;28;20306;-60
2023/04/25 03:32:53;;;;;;;;;;;12.50;63.50;;;;;;5053460;28;20342;-61
2023/04/25 03:35:19;;;;;;;;;;;12.50;63.40;;;;;;5053143;28;19917;-60
2023/04/25 03:37:47;;;;;;;;;;;12.40;63.50;;;;;;5053361;28;19920;-61
2023/04/25 03:40:12;;;;;;;;;;;12.40;63.50;;;;;;5053217;28;19959;-61
2023/04/25 03:42:38;;;;;;;;;;;12.40;63.50;;;;;;5053399;28;19917;-61
2023/04/25 03:45:03;;;;;;;;;;;12.40;63.50;;;;;;5062296;28;20353;-61
2023/04/25 03:47:29;;;;;;;;;;;12.50;63.50;;;;;;5056055;28;20356;-61
2023/04/25 03:49:54;;;;;;;;;;;12.40;63.60;;;;;;5052698;28;19923;-61
2023/04/25 03:52:20;;;;;;;;;;;12.50;63.50;;;;;;5060523;28;19917;-61
2023/04/25 03:54:45;;;;;;;;;;;12.50;63.50;;;;;;5059862;28;19924;-61
2023/04/25 03:57:11;;;;;;;;;;;12.50;63.50;;;;;;5060643;28;19925;-62
2023/04/25 03:59:36;;;;;;;;;;;12.50;63.40;;;;;;5066088;28;19913;-62
2023/04/25 04:02:02;;;;;;;;;;;12.60;63.40;;;;;;5052504;28;19920;-61
2023/04/25 04:04:27;;;;;;;;;;;12.60;63.40;;;;;;5052805;28;19909;-61
2023/04/25 04:06:52;;;;;;;;;;;12.60;63.40;;;;;;5063564;28;20054;-62
2023/04/25 04:09:19;;;;;;;;;;;12.60;63.30;;;;;;5056749;28;19912;-62
2023/04/25 04:11:44;;;;;;;;;;;12.60;63.30;;;;;;5053398;28;19916;-62
2023/04/25 04:14:10;;;;;;;;;;;12.60;63.20;;;;;;5058797;28;19935;-61
2023/04/25 04:16:35;;;;;;;;;;;12.60;63.30;;;;;;5068068;28;19924;-61
2023/04/25 04:19:02;;;;;;;;;;;12.60;63.20;;;;;;5069502;28;19990;-62
2023/04/25 04:21:28;;;;;;;;;;;12.50;63.10;;;;;;5053241;28;19920;-62
2023/04/25 04:23:54;;;;;;;;;;;12.50;63.20;;;;;;5058180;28;20363;-62
2023/04/25 04:26:23;;;;;;;;;;;12.50;63.10;;;;;;5058751;28;19912;-61
2023/04/25 04:28:50;;;;;;;;;;;12.50;63.10;;;;;;5068787;28;19924;-62
2023/04/25 04:31:15;;;;;;;;;;;12.40;63.10;;;;;;5059266;28;20432;-62
2023/04/25 04:33:41;;;;;;;;;;;12.40;63.10;;;;;;5061276;28;19917;-61
2023/04/25 04:36:07;;;;;;;;;;;12.40;63.00;;;;;;5064128;28;19955;-62
2023/04/25 04:38:32;;;;;;;;;;;12.40;63.10;;;;;;5052416;28;20383;-62
2023/04/25 04:41:10;;;;;;;;;;;12.40;63.00;;;;;;5052027;28;19909;-62
2023/04/25 04:43:36;;;;;;;;;;;12.30;63.10;;;;;;5052343;28;19940;-60
2023/04/25 04:46:03;;;;;;;;;;;12.30;63.00;;;;;;5052145;28;19913;-61
2023/04/25 04:48:28;;;;;;;;;;;12.30;63.10;;;;;;5052181;28;20012;-61
2023/04/25 04:50:54;;;;;;;;;;;12.30;63.10;;;;;;5051763;28;20003;-61
2023/04/25 04:53:19;;;;;;;;;;;12.40;63.20;;;;;;5052161;28;20369;-60
2023/04/25 04:55:46;;;;;;;;;;;12.40;63.30;;;;;;5051282;28;19921;-61
2023/04/25 04:58:11;;;;;;;;;;;12.40;63.30;;;;;;5047438;28;19939;-61
2023/04/25 05:00:37;;;;;;;;;;;12.40;63.20;;;;;;5048874;28;19913;-61
2023/04/25 05:03:02;;;;;;;;;;;12.40;63.30;;;;;;5051193;28;19977;-62
2023/04/25 05:05:28;;;;;;;;;;;12.40;63.30;;;;;;5068677;28;20012;-61
2023/04/25 05:07:53;;;;;;;;;;;12.50;63.40;;;;;;5068905;28;19920;-59
2023/04/25 05:10:19;;;;;;;;;;;12.40;63.10;;;;;;5068641;28;19916;-59
2023/04/25 05:12:44;;;;;;;;;;;12.50;63.30;;;;;;5068873;28;19916;-60
2023/04/25 05:15:10;;;;;;;;;;;12.40;63.20;;;;;;5065278;28;19916;-59
2023/04/25 05:17:35;;;;;;;;;;;12.50;63.20;;;;;;5068413;28;20120;-61
2023/04/25 05:20:02;;;;;;;;;;;12.50;63.20;;;;;;5068198;28;19920;-61
2023/04/25 05:22:27;;;;;;;;;;;12.50;63.30;;;;;;5058163;28;19917;-61
2023/04/25 05:24:53;;;;;;;;;;;12.50;63.40;;;;;;5047716;28;19912;-60
2023/04/25 05:27:18;;;;;;;;;;;12.60;63.50;;;;;;5050795;28;19927;-61
2023/04/25 05:29:44;;;;;;;;;;;12.70;63.60;;;;;;5047964;28;20004;-61
2023/04/25 05:32:09;;;;;;;;;;;12.70;63.60;;;;;;5047516;28;19917;-60
2023/04/25 05:34:35;;;;;;;;;;;12.70;63.70;;;;;;5065391;28;20417;-61
2023/04/25 05:37:00;;;;;;;;;;;12.80;63.70;;;;;;5061521;28;19948;-61
2023/04/25 05:39:26;;;;;;;;;;;12.90;63.60;;;;;;5047738;28;19920;-61
2023/04/25 05:41:52;;;;;;;;;;;12.90;63.50;;;;;;5047056;28;20383;-60
2023/04/25 05:44:17;;;;;;;;;;;13.00;63.60;;;;;;5047408;28;19917;-61
2023/04/25 05:46:43;;;;;;;;;;;13.10;63.80;;;;;;5047152;28;19909;-61
2023/04/25 05:49:08;;;;;;;;;;;13.20;64.00;;;;;;5047412;28;20015;-61
2023/04/25 05:51:34;;;;;;;;;;;13.30;63.90;;;;;;5047079;28;19999;-61
2023/04/25 05:53:59;;;;;;;;;;;13.30;63.80;;;;;;5047437;28;19975;-61
2023/04/25 05:56:25;;;;;;;;;;;13.40;63.80;;;;;;5047106;28;19924;-61
2023/04/25 05:58:50;;;;;;;;;;;13.50;63.80;;;;;;5047702;28;20411;-62
2023/04/25 06:01:16;;;;;;;;;;;13.60;63.60;;;;;;5046526;28;19912;-60
2023/04/25 06:03:42;;;;;;;;;;;13.60;63.50;;;;;;5046256;28;19927;-61
2023/04/25 06:06:08;;;;;;;;;;;13.70;63.60;;;;;;5042833;28;19931;-61
2023/04/25 06:08:34;;;;;;;;;;;13.70;63.50;;;;;;5036223;28;19962;-60
2023/04/25 06:11:00;;;;;;;;;;;13.70;63.60;;;;;;5047413;28;20403;-60
2023/04/25 06:13:25;;;;;;;;;;;13.80;63.80;;;;;;5046586;28;19932;-60
2023/04/25 06:15:51;;;;;;;;;;;14.00;63.90;;;;;;5046345;28;19916;-60
2023/04/25 06:18:16;;;;;;;;;;;14.10;63.90;;;;;;5046433;28;20011;-61
2023/04/25 06:20:41;;;;;;;;;;;14.20;63.70;;;;;;5044709;28;19920;-61
2023/04/25 06:23:07;;;;;;;;;;;14.20;63.60;;;;;;5043620;28;19920;-60
2023/04/25 06:25:32;;;;;;;;;;;14.30;64.00;;;;;;5047487;28;19920;-60
2023/04/25 06:27:58;;;;;;;;;;;14.40;63.60;;;;;;5046724;28;19921;-60
2023/04/25 06:30:25;;;;;;;;;;;14.50;63.20;;;;;;5043957;28;19917;-61
2023/04/25 06:32:51;;;;;;;;;;;14.50;63.30;;;;;;5045961;28;20340;-60
2023/04/25 06:35:16;;;;;;;;;;;14.60;63.50;;;;;;5046319;28;20018;-60
2023/04/25 06:37:42;;;;;;;;;;;14.70;63.50;;;;;;5044575;28;20004;-61
2023/04/25 06:40:08;;;;;;;;;;;14.70;63.20;;;;;;5047720;28;19920;-61
2023/04/25 06:42:33;;;;;;;;;;;14.80;63.30;;;;;;5053586;28;19917;-61
2023/04/25 06:44:59;;;;;;;;;;;14.80;62.90;;;;;;5050542;28;19915;-60
2023/04/25 06:47:24;;;;;;;;;;;14.80;62.80;;;;;;5049927;28;20251;-61
2023/04/25 06:49:49;;;;;;;;;;;14.90;63.00;;;;;;5050786;28;19912;-61
2023/04/25 06:52:15;;;;;;;;;;;15.00;63.10;;;;;;5049603;28;20309;-61
2023/04/25 06:54:40;;;;;;;;;;;15.00;62.80;;;;;;5050383;28;20021;-61
2023/04/25 06:57:06;;;;;;;;;;;15.00;62.60;;;;;;5049575;28;20395;-61
2023/04/25 06:59:32;;;;;;;;;;;15.10;62.40;;;;;;5050105;28;20315;-61
2023/04/25 07:01:58;;;;;;;;;;;15.20;63.10;;;;;;5050090;28;20000;-60
2023/04/25 07:04:23;;;;;;;;;;;15.30;63.00;;;;;;5050045;28;20139;-61
2023/04/25 07:06:49;;;;;;;;;;;15.50;63.40;;;;;;5051762;28;19919;-60
2023/04/25 07:09:14;;;;;;;;;;;15.60;63.20;;;;;;5053608;28;20080;-60
2023/04/25 07:11:40;;;;;;;;;;;15.70;62.70;;;;;;5050992;28;19928;-60
2023/04/25 07:14:05;;;;;;;;;;;15.70;62.60;;;;;;5051143;28;20015;-61
2023/04/25 07:16:31;;;;;;;;;;;15.80;62.70;;;;;;5048703;28;20026;-61
2023/04/25 07:18:56;;;;;;;;;;;15.80;62.70;;;;;;5049676;28;20391;-60
2023/04/25 07:21:21;;;;;;;;;;;16.00;62.70;;;;;;5049766;28;20327;-61
2023/04/25 07:23:47;;;;;;;;;;;16.10;62.90;;;;;;5049771;28;19917;-60
2023/04/25 07:26:12;;;;;;;;;;;16.20;63.20;;;;;;5049758;28;19931;-60
2023/04/25 07:28:38;;;;;;;;;;;16.40;62.60;;;;;;5049346;28;20351;-60
2023/04/25 07:31:03;;;;;;;;;;;16.50;62.30;;;;;;5049963;28;20380;-60
2023/04/25 07:33:29;;;;;;;;;;;16.50;62.50;;;;;;5054994;28;19925;-61
2023/04/25 07:35:55;;;;;;;;;;;16.70;63.30;;;;;;5050409;28;19921;-60
2023/04/25 07:38:20;;;;;;;;;;;16.90;63.60;;;;;;5049178;28;20509;-60
2023/04/25 07:40:47;;;;;;;;;;;17.20;63.80;;;;;;5048864;28;19944;-60
2023/04/25 07:43:16;;;;;;;;;;;17.40;63.40;;;;;;5051698;28;20361;-60
2023/04/25 07:45:42;;;;;;;;;;;17.60;62.40;;;;;;5049393;28;19916;-61
2023/04/25 07:48:07;;;;;;;;;;;17.70;61.30;;;;;;5048920;28;19916;-61
2023/04/25 07:50:33;;;;;;;;;;;17.80;61.70;;;;;;5049166;28;19915;-60
2023/04/25 07:52:58;;;;;;;;;;;17.80;61.80;;;;;;5048553;28;19971;-60
2023/04/25 07:55:24;;;;;;;;;;;17.90;62.40;;;;;;5047838;28;19923;-61
2023/04/25 07:57:49;;;;;;;;;;;18.00;61.90;;;;;;5048409;28;19956;-61
2023/04/25 08:00:15;;;;;;;;;;;18.10;60.70;;;;;;5048681;28;19975;-61
2023/04/25 08:02:40;;;;;;;;;;;18.10;61.80;;;;;;5050068;28;19970;-61
2023/04/25 08:05:08;;;;;;;;;;;18.40;63.70;;;;;;5048440;28;20177;-60
2023/04/25 08:07:33;;;;;;;;;;;18.70;64.20;;;;;;5049558;28;19924;-61
2023/04/25 08:09:59;;;;;;;;;;;19.20;66.10;;;;;;5048136;28;19913;-61
2023/04/25 08:12:24;;;;;;;;;;;20.00;67.10;;;;;;5049191;28;20016;-61
2023/04/25 08:14:50;;;;;;;;;;;20.70;66.40;;;;;;5049961;28;19944;-61
2023/04/25 08:17:16;;;;;;;;;;;21.40;66.40;;;;;;5047153;28;19917;-61
2023/04/25 08:19:41;;;;;;;;;;;22.20;66.50;;;;;;5050742;28;19913;-61
2023/04/25 08:22:07;;;;;;;;;;;22.70;65.30;;;;;;5048913;28;19920;-61
2023/04/25 08:24:32;;;;;;;;;;;23.10;63.00;;;;;;5048498;28;20023;-61
2023/04/25 08:26:58;;;;;;;;;;;23.20;61.80;;;;;;5048963;28;20398;-61
2023/04/25 08:29:25;;;;;;;;;;;23.30;60.80;;;;;;5050763;28;19917;-61
2023/04/25 08:31:52;;;;;;;;;;;23.30;60.10;;;;;;5047819;28;19967;-61
2023/04/25 08:34:18;;;;;;;;;;;23.10;59.60;;;;;;5048865;28;19928;-61
2023/04/25 08:36:43;;;;;;;;;;;23.00;59.10;;;;;;5048122;28;19908;-60
2023/04/25 08:39:09;;;;;;;;;;;22.90;59.60;;;;;;5048857;28;19928;-61
2023/04/25 08:41:36;;;;;;;;;;;22.80;58.20;;;;;;5051067;28;19916;-61
2023/04/25 08:44:02;;;;;;;;;;;22.70;57.90;;;;;;5049129;28;20399;-61
2023/04/25 08:46:28;;;;;;;;;;;22.70;58.00;;;;;;5046884;28;19948;-61
2023/04/25 08:48:55;;;;;;;;;;;22.50;56.90;;;;;;5048630;28;19979;-61
2023/04/25 08:51:27;;;;;;;;;;;22.40;55.40;;;;;;5047420;28;20335;-61
2023/04/25 08:53:53;;;;;;;;;;;22.40;58.10;;;;;;5048774;28;20302;-61
2023/04/25 08:56:20;;;;;;;;;;;22.50;58.60;;;;;;5047351;28;19917;-61
2023/04/25 08:58:47;;;;;;;;;;;22.50;54.00;;;;;;5048704;28;19921;-59
2023/04/25 09:01:13;;;;;;;;;;;22.50;53.60;;;;;;5048625;28;19920;-59
2023/04/25 09:03:38;;;;;;;;;;;22.50;54.20;;;;;;5047509;28;19917;-59
2023/04/25 09:06:04;;;;;;;;;;;22.40;54.80;;;;;;5046483;28;19913;-60
2023/04/25 09:08:30;;;;;;;;;;;22.50;54.90;;;;;;5048564;28;19917;-61
2023/04/25 09:10:55;;;;;;;;;;;22.60;55.80;;;;;;5047177;28;19963;-61
2023/04/25 09:13:24;;;;;;;;;;;22.80;56.40;;;;;;5048353;28;19964;-61
2023/04/25 09:15:52;;;;;;;;;;;22.90;55.10;;;;;;5047295;28;19921;-61
2023/04/25 09:18:27;;;;;;;;;;;23.00;55.70;;;;;;5047944;28;19921;-61
2023/04/25 09:20:54;;;;;;;;;;;23.10;55.00;;;;;;5046904;28;19917;-61
2023/04/25 09:23:23;;;;;;;;;;;23.30;56.50;;;;;;5048090;28;20344;-59
2023/04/25 09:25:49;;;;;;;;;;;23.90;53.60;;;;;;5046708;28;20275;-59
2023/04/25 09:28:14;;;;;;;;;;;24.40;51.40;;;;;;5047763;28;19921;-59
2023/04/25 09:30:40;;;;;;;;;;;24.80;50.50;;;;;;5046066;28;19923;-60
2023/04/25 09:33:06;;;;;;;;;;;25.40;51.60;;;;;;5050915;28;19924;-59
2023/04/25 09:35:37;;;;;;;;;;;25.60;48.20;;;;;;5047490;28;20384;-59
2023/04/25 09:38:06;;;;;;;;;;;25.30;45.50;;;;;;5047810;28;19927;-59
2023/04/25 09:40:32;;;;;;;;;;;25.00;46.30;;;;;;5049935;28;20008;-60
2023/04/25 09:42:58;;;;;;;;;;;24.70;45.10;;;;;;5047784;28;20043;-60
2023/04/25 09:45:24;;;;;;;;;;;24.30;44.00;;;;;;5046919;28;19916;-60
2023/04/25 09:47:50;;;;;;;;;;;23.90;43.70;;;;;;5047329;28;20398;-59
2023/04/25 09:50:17;;;;;;;;;;;23.30;40.10;;;;;;5046626;28;19936;-59
2023/04/25 09:52:43;;;;;;;;;;;22.70;42.00;;;;;;5047726;28;19928;-60
2023/04/25 09:55:08;;;;;;;;;;;22.30;43.50;;;;;;5046995;28;19928;-60
2023/04/25 09:57:35;;;;;;;;;;;21.90;45.00;;;;;;5047186;28;19924;-60
2023/04/25 10:00:00;;;;;;;;;;;21.60;44.00;;;;;;5046588;28;19923;-60
2023/04/25 10:02:27;;;;;;;;;;;21.30;44.70;;;;;;5045949;28;20135;-60
2023/04/25 10:04:55;;;;;;;;;;;21.10;44.90;;;;;;5046570;28;19913;-60
2023/04/25 10:07:28;;;;;;;;;;;21.10;45.60;;;;;;5047250;28;19916;-60
2023/04/25 10:09:56;;;;;;;;;;;21.00;44.40;;;;;;5046070;28;19916;-60
2023/04/25 10:12:22;;;;;;;;;;;20.80;43.50;;;;;;5046867;28;20363;-60
2023/04/25 10:14:47;;;;;;;;;;;20.60;42.40;;;;;;5046140;28;19920;-60
2023/04/25 10:17:13;;;;;;;;;;;20.30;42.70;;;;;;5046410;28;19917;-60
2023/04/25 10:19:39;;;;;;;;;;;20.20;44.00;;;;;;5047215;28;19921;-60
2023/04/25 10:22:13;;;;;;;;;;;20.00;44.50;;;;;;5045899;28;21438;-60
2023/04/25 10:24:39;;;;;;;;;;;20.00;44.80;;;;;;5047369;28;19923;-59
2023/04/25 10:27:05;;;;;;;;;;;19.90;44.90;;;;;;5046211;28;20411;-60
2023/04/25 10:29:30;;;;;;;;;;;20.00;45.70;;;;;;5045610;28;20012;-60
2023/04/25 10:31:56;;;;;;;;;;;20.10;46.30;;;;;;5045326;28;20031;-60
2023/04/25 10:34:39;;;;;;;;;;;20.30;46.60;;;;;;5046456;28;20011;-60
2023/04/25 10:37:05;;;;;;;;;;;20.40;46.10;;;;;;5045872;28;19936;-60
2023/04/25 10:39:32;;;;;;;;;;;20.60;46.10;;;;;;5046544;28;20295;-61
2023/04/25 10:41:58;;;;;;;;;;;20.80;44.70;;;;;;5046209;28;19966;-60
2023/04/25 10:44:30;;;;;;;;;;;21.00;44.20;;;;;;5049021;28;20522;-61
2023/04/25 10:47:00;;;;;;;;;;;21.10;44.10;;;;;;5035593;28;20206;-60
2023/04/25 10:49:30;;;;;;;;;;;21.40;43.50;;;;;;5046569;28;19996;-60
2023/04/25 10:52:15;;;;;;;;;;;21.90;44.00;;;;;;5045837;28;19970;-60
2023/04/25 10:54:46;;;;;;;;;;;22.70;42.60;;;;;;5045919;28;20030;-60
2023/04/25 10:57:30;;;;;;;;;;;23.60;41.90;;;;;;5046528;28;19944;-60
2023/04/25 11:00:05;;;;;;;;;;;24.30;40.40;;;;;;5046106;28;19921;-60
2023/04/25 11:02:30;;;;;;;;;;;24.30;38.20;;;;;;5044282;28;19959;-60
2023/04/25 11:04:56;;;;;;;;;;;24.20;37.90;;;;;;5045765;28;20481;-60
2023/04/25 11:07:39;;;;;;;;;;;24.00;37.80;;;;;;5046322;28;19970;-60
2023/04/25 11:10:05;;;;;;;;;;;23.70;37.80;;;;;;5044971;28;19917;-60
2023/04/25 11:12:31;;;;;;;;;;;23.40;39.30;;;;;;5046415;28;19927;-60
2023/04/25 11:15:01;;;;;;;;;;;23.20;40.00;;;;;;5046630;28;19921;-60
2023/04/25 11:17:26;;;;;;;;;;;23.00;40.10;;;;;;5046089;28;19917;-60
2023/04/25 11:19:51;;;;;;;;;;;22.70;38.80;;;;;;5045538;28;19928;-60
2023/04/25 11:22:17;;;;;;;;;;;22.40;38.60;;;;;;5046232;28;19921;-60
2023/04/25 11:24:42;;;;;;;;;;;22.00;39.80;;;;;;5045047;28;20364;-60
2023/04/25 11:27:08;;;;;;;;;;;21.40;41.70;;;;;;5048256;28;19925;-59
2023/04/25 11:29:34;;;;;;;;;;;20.90;43.60;;;;;;5049140;28;20327;-60
2023/04/25 11:32:00;;;;;;;;;;;20.40;44.10;;;;;;5049406;28;20434;-60
2023/04/25 11:34:26;;;;;;;;;;;20.20;45.20;;;;;;5051241;28;19920;-60
2023/04/25 11:36:52;;;;;;;;;;;20.10;46.20;;;;;;5048543;28;19931;-61
2023/04/25 11:39:18;;;;;;;;;;;20.30;45.70;;;;;;5049989;28;19920;-61
2023/04/25 11:41:44;;;;;;;;;;;20.60;46.10;;;;;;5049950;28;20410;-61
2023/04/25 11:44:09;;;;;;;;;;;20.90;45.90;;;;;;5049647;28;20003;-61
2023/04/25 11:46:35;;;;;;;;;;;21.10;43.30;;;;;;5048965;28;19923;-61
2023/04/25 11:49:00;;;;;;;;;;;21.10;42.80;;;;;;5049934;28;19932;-60
2023/04/25 11:51:26;;;;;;;;;;;21.00;42.50;;;;;;5048458;28;20117;-60
2023/04/25 11:53:51;;;;;;;;;;;20.90;41.70;;;;;;5052148;28;19921;-61
2023/04/25 11:56:17;;;;;;;;;;;20.70;41.00;;;;;;5049202;28;20248;-61
2023/04/25 11:58:54;;;;;;;;;;;20.40;40.90;;;;;;5047902;28;19923;-61
2023/04/25 12:01:30;;;;;;;;;;;20.10;42.30;;;;;;5051409;28;19962;-61
2023/04/25 12:03:55;;;;;;;;;;;19.60;42.80;;;;;;5029753;28;19925;-60
2023/04/25 12:06:21;;;;;;;;;;;19.20;43.90;;;;;;5037209;28;19915;-60
2023/04/25 12:09:06;;;;;;;;;;;19.10;44.90;;;;;;5049190;28;20015;-60
2023/04/25 12:11:32;;;;;;;;;;;19.20;45.50;;;;;;5049346;28;19908;-60
2023/04/25 12:14:04;;;;;;;;;;;19.40;45.90;;;;;;5049583;28;20355;-60
2023/04/25 12:16:40;;;;;;;;;;;19.70;45.50;;;;;;5049161;28;19915;-61
2023/04/25 12:19:05;;;;;;;;;;;20.30;45.30;;;;;;5049390;28;20399;-61
2023/04/25 12:21:32;;;;;;;;;;;21.20;43.90;;;;;;5048949;28;19909;-61
2023/04/25 12:24:09;;;;;;;;;;;22.30;42.10;;;;;;5049363;28;19931;-61
2023/04/25 12:26:47;;;;;;;;;;;23.50;38.90;;;;;;5049028;28;19975;-61
2023/04/25 12:29:23;;;;;;;;;;;24.60;37.20;;;;;;5048779;28;19924;-61
2023/04/25 12:31:50;;;;;;;;;;;25.50;35.50;;;;;;5049184;28;19952;-61
2023/04/25 12:34:15;;;;;;;;;;;25.90;34.50;;;;;;5048751;28;19974;-61
2023/04/25 12:36:41;;;;;;;;;;;25.80;33.50;;;;;;5047255;28;19917;-61
2023/04/25 12:39:07;;;;;;;;;;;25.60;33.10;;;;;;5049175;28;19928;-61
2023/04/25 12:41:32;;;;;;;;;;;25.50;33.40;;;;;;5047608;28;20019;-61
2023/04/25 12:43:58;;;;;;;;;;;25.90;32.60;;;;;;5048837;28;19962;-61
2023/04/25 12:46:23;;;;;;;;;;;26.80;32.20;;;;;;5047078;28;19917;-61
2023/04/25 12:48:48;;;;;;;;;;;27.70;30.50;;;;;;5048678;28;19921;-61
2023/04/25 12:51:14;;;;;;;;;;;28.30;28.80;;;;;;5048678;28;19950;-61
2023/04/25 12:53:40;;;;;;;;;;;28.90;28.40;;;;;;5048702;28;19920;-62
2023/04/25 12:56:08;;;;;;;;;;;29.30;27.60;;;;;;5048470;28;19921;-61
2023/04/25 12:58:34;;;;;;;;;;;29.20;27.50;;;;;;5048476;28;19921;-62
2023/04/25 13:00:59;;;;;;;;;;;29.60;27.60;;;;;;5048483;28;20361;-63
2023/04/25 13:03:25;;;;;;;;;;;30.20;26.50;;;;;;5028523;28;19921;-61
2023/04/25 13:05:52;;;;;;;;;;;30.30;25.20;;;;;;5028326;28;19995;-61
2023/04/25 13:08:21;;;;;;;;;;;30.10;25.40;;;;;;5031502;28;19928;-63
2023/04/25 13:10:47;;;;;;;;;;;29.70;25.50;;;;;;5047812;28;19916;-61
2023/04/25 13:13:12;;;;;;;;;;;29.40;25.20;;;;;;5048099;28;20356;-60
2023/04/25 13:15:38;;;;;;;;;;;28.60;24.90;;;;;;5046438;28;19936;-61
2023/04/25 13:18:05;;;;;;;;;;;27.70;24.70;;;;;;5048001;28;19921;-60
2023/04/25 13:20:30;;;;;;;;;;;26.70;25.20;;;;;;5047606;28;19999;-60
2023/04/25 13:22:56;;;;;;;;;;;25.80;27.20;;;;;;5048085;28;20011;-60
2023/04/25 13:25:22;;;;;;;;;;;24.50;30.90;;;;;;5047822;28;20333;-61
2023/04/25 13:27:47;;;;;;;;;;;22.70;36.70;;;;;;5047651;28;19917;-61
2023/04/25 13:30:13;;;;;;;;;;;20.80;40.70;;;;;;5047779;28;19916;-61
2023/04/25 13:32:38;;;;;;;;;;;19.70;44.90;;;;;;5047671;28;20007;-61
2023/04/25 13:35:05;;;;;;;;;;;18.70;45.90;;;;;;5047367;28;19913;-61
2023/04/25 13:37:32;;;;;;;;;;;17.90;47.80;;;;;;5047752;28;19967;-60
2023/04/25 13:39:58;;;;;;;;;;;17.30;48.00;;;;;;5046850;28;19935;-60
2023/04/25 13:42:24;;;;;;;;;;;16.60;50.00;;;;;;5050547;28;20341;-62
2023/04/25 13:44:51;;;;;;;;;;;16.30;51.80;;;;;;5049773;28;22496;-61
2023/04/25 13:47:17;;;;;;;;;;;16.20;53.70;;;;;;5046721;28;19919;-61
2023/04/25 13:49:42;;;;;;;;;;;16.10;54.50;;;;;;5046954;28;20163;-61
2023/04/25 13:52:08;;;;;;;;;;;16.00;55.80;;;;;;5047256;28;19925;-62
2023/04/25 13:54:33;;;;;;;;;;;16.30;57.50;;;;;;5047543;28;19916;-61
2023/04/25 13:56:59;;;;;;;;;;;16.70;58.60;;;;;;5047265;28;19917;-62
2023/04/25 13:59:25;;;;;;;;;;;17.30;58.80;;;;;;5047647;28;19921;-62
2023/04/25 14:01:51;;;;;;;;;;;18.00;57.50;;;;;;5048909;28;20010;-61
2023/04/25 14:04:16;;;;;;;;;;;18.30;57.30;;;;;;5046987;28;20382;-61
2023/04/25 14:06:42;;;;;;;;;;;18.40;56.50;;;;;;5045828;28;19966;-61
2023/04/25 14:09:10;;;;;;;;;;;18.30;56.50;;;;;;5047406;28;20363;-60
2023/04/25 14:11:38;;;;;;;;;;;18.30;56.70;;;;;;5046784;28;19925;-61